createdAt,value
2022-08-29T00:00:31.069Z,3.63
2022-08-29T00:01:35.414Z,4.20
2022-08-29T00:02:38.613Z,3.88
2022-08-29T00:03:42.107Z,4.10
2022-08-29T00:04:46.488Z,3.72
2022-08-29T00:05:50.052Z,4.07
2022-08-29T00:06:52.949Z,3.78
2022-08-29T00:07:55.542Z,4.68
2022-08-29T00:08:58.392Z,4.55
2022-08-29T00:10:01.112Z,3.65
2022-08-29T00:11:06.169Z,4.18
2022-08-29T00:12:09.103Z,4.60
2022-08-29T00:13:13.875Z,4.43
2022-08-29T00:14:20.894Z,4.07
2022-08-29T00:15:26.539Z,4.03
2022-08-29T00:16:29.225Z,4.70
2022-08-29T00:17:32.477Z,4.05
2022-08-29T00:18:35.992Z,4.22
2022-08-29T00:19:38.792Z,4.22
2022-08-29T00:20:41.571Z,4.28
2022-08-29T00:21:44.337Z,3.90
2022-08-29T00:22:48.244Z,4.22
2022-08-29T00:23:51.115Z,4.13
2022-08-29T00:24:53.722Z,4.03
2022-08-29T00:25:56.710Z,4.10
2022-08-29T00:27:02.249Z,4.40
2022-08-29T00:28:05.456Z,3.65
2022-08-29T00:29:08.135Z,4.20
2022-08-29T00:30:12.366Z,4.55
2022-08-29T00:31:14.997Z,5.18
2022-08-29T00:32:17.713Z,4.15
2022-08-29T00:33:20.566Z,4.18
2022-08-29T00:34:23.299Z,4.07
2022-08-29T00:35:28.654Z,4.05
2022-08-29T00:36:31.766Z,4.05
2022-08-29T00:37:34.812Z,3.90
2022-08-29T00:38:38.991Z,4.55
2022-08-29T00:39:44.383Z,3.78
2022-08-29T00:40:53.131Z,3.90
2022-08-29T00:41:55.882Z,4.03
2022-08-29T00:42:58.772Z,4.47
2022-08-29T00:44:01.430Z,4.35
2022-08-29T00:45:06.595Z,4.63
2022-08-29T00:46:46.661Z,4.40
2022-08-29T00:47:53.374Z,4.50
2022-08-29T00:49:26.918Z,4.50
2022-08-29T00:50:37.531Z,4.30
2022-08-29T00:51:41.150Z,4.40
2022-08-29T00:52:47.046Z,4.82
2022-08-29T00:53:54.383Z,3.97
2022-08-29T00:54:57.427Z,5.18
2022-08-29T00:56:00.512Z,4.60
2022-08-29T00:57:03.263Z,4.95
2022-08-29T00:58:14.059Z,4.38
2022-08-29T00:59:18.934Z,4.57
2022-08-29T01:00:22.146Z,4.00
2022-08-29T01:01:24.897Z,3.92
2022-08-29T01:02:28.670Z,4.25
2022-08-29T01:03:33.732Z,4.07
2022-08-29T01:04:36.501Z,4.88
2022-08-29T01:05:40.037Z,4.50
2022-08-29T01:06:43.478Z,4.53
2022-08-29T01:07:47.375Z,4.63
2022-08-29T01:08:50.154Z,4.80
2022-08-29T01:09:53.914Z,4.75
2022-08-29T01:11:15.498Z,4.80
2022-08-29T01:12:18.175Z,5.22
2022-08-29T01:13:23.958Z,4.53
2022-08-29T01:14:27.772Z,6.05
2022-08-29T01:15:31.821Z,5.28
2022-08-29T01:16:34.686Z,5.57
2022-08-29T01:17:42.535Z,5.22
2022-08-29T01:18:47.872Z,5.32
2022-08-29T01:20:34.967Z,4.47
2022-08-29T01:21:57.442Z,4.90
2022-08-29T01:23:15.648Z,5.43
2022-08-29T01:24:34.908Z,4.90
2022-08-29T01:25:40.601Z,4.47
2022-08-29T01:26:45.617Z,4.78
2022-08-29T01:27:52.998Z,4.93
2022-08-29T01:28:56.787Z,4.90
2022-08-29T01:29:59.386Z,4.10
2022-08-29T01:31:04.361Z,4.32
2022-08-29T01:32:07.387Z,5.03
2022-08-29T01:33:10.037Z,4.57
2022-08-29T01:34:14.459Z,4.95
2022-08-29T01:35:17.054Z,4.63
2022-08-29T01:36:22.988Z,4.85
2022-08-29T01:37:29.892Z,5.43
2022-08-29T01:38:32.593Z,5.05
2022-08-29T01:39:38.012Z,5.28
2022-08-29T01:40:40.646Z,4.70
2022-08-29T01:41:43.677Z,5.20
2022-08-29T01:42:46.595Z,4.53
2022-08-29T01:43:52.190Z,4.80
2022-08-29T01:44:57.637Z,4.47
2022-08-29T01:46:00.354Z,4.75
2022-08-29T01:47:04.427Z,4.72
2022-08-29T01:48:07.105Z,5.20
2022-08-29T01:49:12.197Z,5.78
2022-08-29T01:50:15.366Z,4.78
2022-08-29T01:51:18.393Z,4.78
2022-08-29T01:52:22.014Z,5.85
2022-08-29T01:53:24.679Z,6.05
2022-08-29T01:54:27.267Z,5.18
2022-08-29T01:55:29.994Z,5.28
2022-08-29T01:56:34.197Z,5.70
2022-08-29T01:57:41.112Z,5.40
2022-08-29T01:58:45.198Z,4.43
2022-08-29T01:59:47.983Z,4.78
2022-08-29T02:00:51.066Z,5.30
2022-08-29T02:01:59.774Z,5.35
2022-08-29T02:03:03.339Z,6.05
2022-08-29T02:04:07.550Z,4.93
2022-08-29T02:05:10.410Z,4.95
2022-08-29T02:06:13.802Z,5.55
2022-08-29T02:07:17.901Z,5.18
2022-08-29T02:08:20.463Z,5.60
2022-08-29T02:09:24.257Z,5.53
2022-08-29T02:10:27.441Z,5.70
2022-08-29T02:11:30.534Z,5.38
2022-08-29T02:12:33.645Z,5.38
2022-08-29T02:13:38.003Z,4.57
2022-08-29T02:14:40.890Z,5.90
2022-08-29T02:15:43.491Z,5.10
2022-08-29T02:16:46.080Z,5.88
2022-08-29T02:17:49.018Z,5.85
2022-08-29T02:18:52.158Z,5.75
2022-08-29T02:19:54.930Z,5.78
2022-08-29T02:20:57.976Z,5.50
2022-08-29T02:22:02.654Z,5.68
2022-08-29T02:23:10.603Z,6.00
2022-08-29T02:24:25.839Z,5.32
2022-08-29T02:25:46.717Z,5.07
2022-08-29T02:26:49.257Z,6.30
2022-08-29T02:27:52.399Z,6.15
2022-08-29T02:28:55.363Z,6.30
2022-08-29T02:29:57.924Z,5.63
2022-08-29T02:31:00.563Z,5.90
2022-08-29T02:32:04.292Z,6.13
2022-08-29T02:33:08.058Z,5.68
2022-08-29T02:34:11.486Z,5.82
2022-08-29T02:35:14.828Z,6.30
2022-08-29T02:36:19.306Z,6.32
2022-08-29T02:37:22.421Z,5.65
2022-08-29T02:38:25.548Z,6.13
2022-08-29T02:39:28.359Z,5.63
2022-08-29T02:40:31.654Z,6.40
2022-08-29T02:41:34.833Z,6.38
2022-08-29T02:42:38.299Z,6.28
2022-08-29T02:43:41.299Z,6.28
2022-08-29T02:44:43.980Z,6.85
2022-08-29T02:45:47.706Z,6.40
2022-08-29T02:46:50.885Z,5.72
2022-08-29T02:47:53.927Z,5.95
2022-08-29T02:49:00.726Z,6.78
2022-08-29T02:50:09.221Z,6.82
2022-08-29T02:51:20.696Z,6.95
2022-08-29T02:52:23.311Z,6.45
2022-08-29T02:53:28.162Z,6.07
2022-08-29T02:54:31.344Z,6.60
2022-08-29T02:55:34.222Z,6.57
2022-08-29T02:56:36.983Z,6.45
2022-08-29T02:57:40.087Z,6.95
2022-08-29T02:58:42.711Z,7.22
2022-08-29T02:59:45.347Z,7.38
2022-08-29T03:00:48.275Z,7.15
2022-08-29T03:01:51.092Z,7.13
2022-08-29T03:02:55.704Z,7.15
2022-08-29T03:03:58.441Z,5.95
2022-08-29T03:05:01.447Z,7.28
2022-08-29T03:06:04.509Z,6.72
2022-08-29T03:07:07.140Z,6.68
2022-08-29T03:08:14.237Z,6.90
2022-08-29T03:09:17.227Z,7.28
2022-08-29T03:10:20.321Z,6.45
2022-08-29T03:11:24.100Z,7.30
2022-08-29T03:12:27.352Z,7.13
2022-08-29T03:13:33.711Z,6.43
2022-08-29T03:14:36.465Z,6.60
2022-08-29T03:15:40.354Z,7.68
2022-08-29T03:16:42.851Z,6.45
2022-08-29T03:17:46.606Z,6.93
2022-08-29T03:18:49.219Z,6.20
2022-08-29T03:19:52.074Z,7.03
2022-08-29T03:20:54.703Z,6.72
2022-08-29T03:21:57.493Z,7.05
2022-08-29T03:23:00.318Z,7.05
2022-08-29T03:24:03.153Z,7.15
2022-08-29T03:25:07.132Z,6.30
2022-08-29T03:26:09.656Z,6.20
2022-08-29T03:27:12.318Z,5.93
2022-08-29T03:28:17.536Z,6.57
2022-08-29T03:29:20.104Z,6.75
2022-08-29T03:30:24.029Z,6.72
2022-08-29T03:31:27.043Z,7.22
2022-08-29T03:32:29.768Z,7.43
2022-08-29T03:33:32.384Z,7.10
2022-08-29T03:34:35.009Z,7.28
2022-08-29T03:35:37.759Z,7.05
2022-08-29T03:36:40.723Z,6.60
2022-08-29T03:37:43.601Z,6.78
2022-08-29T03:38:46.767Z,7.47
2022-08-29T03:39:49.615Z,6.63
2022-08-29T03:40:52.318Z,7.35
2022-08-29T03:42:00.308Z,6.85
2022-08-29T03:43:03.458Z,7.35
2022-08-29T03:44:06.399Z,6.75
2022-08-29T03:45:11.873Z,8.07
2022-08-29T03:46:14.593Z,7.85
2022-08-29T03:47:17.528Z,6.88
2022-08-29T03:48:20.563Z,7.95
2022-08-29T03:49:23.089Z,7.28
2022-08-29T03:50:25.877Z,8.23
2022-08-29T03:51:31.616Z,8.13
2022-08-29T03:52:34.443Z,8.02
2022-08-29T03:53:37.106Z,7.35
2022-08-29T03:54:39.776Z,7.15
2022-08-29T03:55:42.384Z,7.55
2022-08-29T03:56:46.184Z,7.03
2022-08-29T03:57:48.813Z,7.32
2022-08-29T03:58:53.295Z,6.78
2022-08-29T03:59:56.508Z,7.32
2022-08-29T04:00:59.171Z,6.57
2022-08-29T04:02:01.962Z,5.45
2022-08-29T04:03:04.803Z,5.85
2022-08-29T04:04:07.290Z,5.88
2022-08-29T04:05:10.681Z,5.45
2022-08-29T04:06:13.285Z,5.00
2022-08-29T04:07:16.116Z,4.80
2022-08-29T04:08:19.416Z,5.22
2022-08-29T04:09:22.020Z,4.68
2022-08-29T04:10:33.125Z,5.35
2022-08-29T04:11:35.583Z,5.30
2022-08-29T04:12:39.168Z,5.10
2022-08-29T04:13:42.077Z,4.75
2022-08-29T04:14:44.973Z,4.70
2022-08-29T04:15:47.699Z,4.47
2022-08-29T04:16:50.757Z,5.50
2022-08-29T04:17:55.336Z,4.47
2022-08-29T04:18:59.717Z,4.53
2022-08-29T04:20:04.578Z,3.80
2022-08-29T04:21:08.058Z,4.32
2022-08-29T04:22:10.610Z,5.00
2022-08-29T04:23:14.230Z,4.45
2022-08-29T04:24:19.530Z,4.40
2022-08-29T04:25:25.144Z,4.65
2022-08-29T04:26:43.292Z,4.18
2022-08-29T04:27:46.074Z,4.30
2022-08-29T04:28:48.684Z,4.13
2022-08-29T04:29:51.434Z,4.18
2022-08-29T04:30:54.798Z,3.50
2022-08-29T04:31:57.397Z,4.20
2022-08-29T04:33:00.072Z,3.60
2022-08-29T04:34:04.354Z,3.78
2022-08-29T04:35:08.343Z,3.80
2022-08-29T04:36:14.431Z,3.38
2022-08-29T04:37:17.720Z,3.08
2022-08-29T04:38:20.861Z,3.05
2022-08-29T04:39:23.480Z,2.65
2022-08-29T04:40:26.082Z,2.35
2022-08-29T04:41:29.221Z,2.35
2022-08-29T04:42:31.814Z,2.15
2022-08-29T04:43:34.689Z,2.30
2022-08-29T04:44:37.332Z,2.28
2022-08-29T04:45:42.796Z,2.20
2022-08-29T04:46:45.496Z,1.88
2022-08-29T04:47:48.159Z,2.25
2022-08-29T04:48:51.027Z,2.35
2022-08-29T04:49:57.009Z,1.75
2022-08-29T04:51:01.317Z,2.00
2022-08-29T04:52:04.055Z,1.98
2022-08-29T04:53:06.582Z,2.03
2022-08-29T04:54:09.135Z,2.03
2022-08-29T04:55:12.537Z,1.92
2022-08-29T04:56:16.293Z,2.03
2022-08-29T04:57:19.414Z,2.25
2022-08-29T04:58:24.073Z,2.10
2022-08-29T04:59:28.728Z,1.58
2022-08-29T05:00:31.430Z,1.90
2022-08-29T05:01:34.056Z,1.65
2022-08-29T05:02:36.820Z,2.47
2022-08-29T05:03:39.651Z,2.20
2022-08-29T05:04:42.716Z,1.80
2022-08-29T05:05:45.342Z,2.08
2022-08-29T05:06:48.210Z,2.10
2022-08-29T05:07:50.967Z,2.08
2022-08-29T05:08:58.851Z,1.90
2022-08-29T05:10:09.332Z,1.83
2022-08-29T05:11:15.762Z,1.83
2022-08-29T05:12:26.272Z,2.03
2022-08-29T05:13:29.056Z,2.13
2022-08-29T05:14:31.709Z,2.40
2022-08-29T05:15:36.512Z,2.63
2022-08-29T05:16:39.591Z,2.45
2022-08-29T05:17:42.639Z,2.25
2022-08-29T05:18:46.770Z,2.53
2022-08-29T05:19:49.373Z,2.60
2022-08-29T05:20:52.061Z,2.42
2022-08-29T05:21:58.101Z,2.42
2022-08-29T05:23:00.733Z,2.40
2022-08-29T05:24:05.664Z,2.40
2022-08-29T05:25:11.558Z,2.50
2022-08-29T05:26:17.205Z,2.47
2022-08-29T05:27:22.011Z,2.70
2022-08-29T05:28:25.620Z,2.38
2022-08-29T05:29:28.378Z,2.63
2022-08-29T05:30:35.094Z,2.17
2022-08-29T05:31:41.177Z,2.55
2022-08-29T05:32:44.111Z,2.80
2022-08-29T05:33:47.106Z,2.80
2022-08-29T05:34:50.179Z,2.65
2022-08-29T05:35:52.900Z,2.35
2022-08-29T05:36:55.603Z,2.78
2022-08-29T05:37:58.230Z,2.58
2022-08-29T05:39:02.272Z,2.47
2022-08-29T05:40:08.472Z,2.75
2022-08-29T05:41:11.742Z,3.20
2022-08-29T05:42:16.454Z,2.90
2022-08-29T05:43:19.073Z,3.15
2022-08-29T05:44:21.706Z,3.58
2022-08-29T05:45:24.368Z,4.07
2022-08-29T05:46:27.083Z,3.40
2022-08-29T05:47:29.909Z,4.00
2022-08-29T05:48:33.450Z,3.55
2022-08-29T05:49:40.783Z,3.10
2022-08-29T05:50:44.368Z,3.15
2022-08-29T05:51:46.844Z,3.05
2022-08-29T05:52:49.726Z,3.33
2022-08-29T05:53:52.581Z,3.78
2022-08-29T05:54:55.371Z,3.30
2022-08-29T05:55:57.953Z,3.22
2022-08-29T05:57:03.165Z,3.28
2022-08-29T05:58:06.042Z,2.80
2022-08-29T05:59:08.588Z,3.20
2022-08-29T06:00:15.703Z,2.58
2022-08-29T06:01:23.422Z,2.72
2022-08-29T06:02:31.644Z,3.00
2022-08-29T06:03:34.545Z,2.97
2022-08-29T06:04:37.692Z,2.88
2022-08-29T06:05:41.091Z,2.88
2022-08-29T06:06:43.669Z,3.15
2022-08-29T06:07:46.387Z,3.03
2022-08-29T06:08:49.675Z,3.30
2022-08-29T06:10:00.416Z,3.25
2022-08-29T06:11:06.638Z,2.78
2022-08-29T06:12:10.070Z,3.38
2022-08-29T06:13:13.235Z,2.45
2022-08-29T06:14:16.550Z,3.03
2022-08-29T06:15:19.197Z,2.80
2022-08-29T06:16:23.867Z,3.22
2022-08-29T06:17:27.977Z,3.20
2022-08-29T06:18:36.103Z,3.35
2022-08-29T06:19:39.720Z,3.17
2022-08-29T06:20:42.505Z,3.60
2022-08-29T06:21:45.346Z,3.90
2022-08-29T06:22:48.050Z,3.78
2022-08-29T06:23:51.027Z,3.50
2022-08-29T06:24:57.567Z,3.42
2022-08-29T06:26:00.618Z,4.40
2022-08-29T06:27:03.756Z,4.15
2022-08-29T06:28:06.204Z,4.30
2022-08-29T06:29:09.909Z,4.50
2022-08-29T06:30:13.040Z,4.72
2022-08-29T06:31:20.623Z,4.70
2022-08-29T06:32:23.605Z,5.05
2022-08-29T06:33:26.214Z,4.20
2022-08-29T06:34:28.841Z,4.63
2022-08-29T06:35:31.394Z,4.68
2022-08-29T06:36:37.054Z,4.60
2022-08-29T06:37:42.438Z,4.47
2022-08-29T06:38:45.052Z,4.65
2022-08-29T06:39:48.187Z,4.40
2022-08-29T06:40:50.830Z,4.75
2022-08-29T06:41:53.363Z,5.13
2022-08-29T06:42:59.659Z,5.00
2022-08-29T06:44:02.704Z,4.50
2022-08-29T06:45:06.628Z,4.95
2022-08-29T06:46:12.496Z,5.00
2022-08-29T06:47:15.088Z,5.75
2022-08-29T06:48:18.161Z,5.00
2022-08-29T06:49:22.067Z,5.78
2022-08-29T06:50:24.740Z,4.97
2022-08-29T06:51:32.900Z,5.45
2022-08-29T06:52:35.914Z,5.53
2022-08-29T06:53:38.845Z,5.43
2022-08-29T06:54:41.745Z,6.10
2022-08-29T06:55:44.418Z,5.07
2022-08-29T06:56:47.619Z,5.65
2022-08-29T06:57:50.344Z,5.47
2022-08-29T06:58:52.882Z,5.32
2022-08-29T06:59:55.529Z,5.38
2022-08-29T07:00:58.409Z,5.70
2022-08-29T07:02:01.076Z,4.95
2022-08-29T07:03:03.855Z,5.25
2022-08-29T07:04:07.385Z,5.95
2022-08-29T07:06:19.806Z,5.03
2022-08-29T07:07:22.559Z,5.47
2022-08-29T07:08:25.493Z,5.50
2022-08-29T07:09:31.140Z,5.28
2022-08-29T07:10:33.818Z,4.45
2022-08-29T07:11:41.074Z,5.40
2022-08-29T07:12:43.998Z,5.03
2022-08-29T07:13:46.841Z,5.05
2022-08-29T07:14:50.181Z,4.47
2022-08-29T07:15:56.218Z,5.28
2022-08-29T07:17:00.723Z,4.82
2022-08-29T07:18:03.661Z,4.88
2022-08-29T07:19:07.297Z,4.63
2022-08-29T07:20:10.813Z,4.47
2022-08-29T07:21:20.130Z,4.40
2022-08-29T07:22:23.506Z,4.35
2022-08-29T07:23:26.015Z,3.80
2022-08-29T07:24:28.701Z,4.03
2022-08-29T07:25:31.356Z,3.85
2022-08-29T07:26:38.860Z,3.58
2022-08-29T07:27:41.632Z,3.90
2022-08-29T07:28:50.270Z,3.55
2022-08-29T07:29:53.085Z,3.97
2022-08-29T07:30:56.257Z,4.35
2022-08-29T07:31:59.048Z,3.78
2022-08-29T07:33:02.075Z,4.40
2022-08-29T07:34:05.069Z,3.50
2022-08-29T07:35:11.583Z,3.95
2022-08-29T07:36:16.155Z,4.07
2022-08-29T07:37:18.705Z,4.20
2022-08-29T07:38:21.909Z,3.70
2022-08-29T07:39:24.620Z,4.25
2022-08-29T07:40:27.723Z,4.18
2022-08-29T07:41:30.513Z,4.47
2022-08-29T07:42:34.872Z,3.88
2022-08-29T07:43:37.758Z,3.58
2022-08-29T07:44:40.429Z,3.67
2022-08-29T07:45:43.161Z,4.10
2022-08-29T07:46:47.623Z,3.25
2022-08-29T07:47:50.345Z,3.72
2022-08-29T07:48:53.494Z,3.28
2022-08-29T07:49:56.786Z,4.05
2022-08-29T07:50:59.588Z,3.72
2022-08-29T07:52:02.383Z,4.22
2022-08-29T07:53:04.874Z,4.03
2022-08-29T07:54:07.900Z,3.83
2022-08-29T07:55:11.277Z,3.50
2022-08-29T07:56:17.626Z,3.65
2022-08-29T07:57:20.380Z,3.85
2022-08-29T07:58:22.938Z,3.35
2022-08-29T07:59:25.614Z,3.80
2022-08-29T08:00:28.698Z,3.88
2022-08-29T08:01:31.692Z,4.47
2022-08-29T08:02:34.535Z,3.63
2022-08-29T08:03:37.252Z,3.55
2022-08-29T08:04:40.130Z,3.92
2022-08-29T08:05:42.821Z,3.47
2022-08-29T08:06:46.052Z,3.47
2022-08-29T08:07:49.587Z,3.38
2022-08-29T08:08:58.356Z,3.63
2022-08-29T08:10:01.749Z,3.97
2022-08-29T08:11:06.620Z,3.50
2022-08-29T08:12:09.722Z,3.47
2022-08-29T08:13:12.665Z,3.58
2022-08-29T08:14:15.391Z,3.00
2022-08-29T08:15:18.185Z,3.53
2022-08-29T08:16:23.291Z,3.58
2022-08-29T08:17:26.013Z,3.00
2022-08-29T08:18:29.824Z,3.45
2022-08-29T08:19:33.290Z,3.40
2022-08-29T08:20:35.929Z,3.20
2022-08-29T08:21:38.567Z,3.67
2022-08-29T08:22:52.332Z,3.33
2022-08-29T08:23:55.209Z,3.08
2022-08-29T08:24:57.885Z,3.22
2022-08-29T08:26:01.059Z,3.33
2022-08-29T08:27:03.815Z,3.63
2022-08-29T08:28:06.437Z,3.20
2022-08-29T08:29:12.540Z,3.30
2022-08-29T08:30:15.083Z,3.05
2022-08-29T08:31:18.590Z,2.88
2022-08-29T08:32:21.400Z,3.75
2022-08-29T08:33:24.976Z,2.97
2022-08-29T08:34:29.326Z,3.00
2022-08-29T08:35:35.179Z,2.78
2022-08-29T08:36:41.141Z,3.20
2022-08-29T08:37:44.437Z,2.80
2022-08-29T08:38:48.514Z,2.58
2022-08-29T08:39:51.275Z,3.40
2022-08-29T08:41:28.996Z,2.95
2022-08-29T08:42:35.574Z,2.50
2022-08-29T08:43:51.817Z,2.35
2022-08-29T08:45:00.714Z,2.65
2022-08-29T08:46:04.087Z,2.65
2022-08-29T08:47:10.734Z,2.55
2022-08-29T08:48:23.457Z,2.38
2022-08-29T08:49:35.005Z,2.28
2022-08-29T08:51:03.969Z,1.90
2022-08-29T08:52:13.900Z,2.15
2022-08-29T08:53:20.192Z,2.58
2022-08-29T08:54:25.716Z,2.30
2022-08-29T08:55:45.171Z,2.40
2022-08-29T08:56:52.525Z,2.13
2022-08-29T08:58:04.303Z,2.13
2022-08-29T08:59:20.409Z,2.40
2022-08-29T09:00:23.212Z,2.13
2022-08-29T09:01:27.980Z,2.20
2022-08-29T09:02:52.018Z,2.17
2022-08-29T09:04:13.417Z,2.28
2022-08-29T09:07:32.516Z,1.90
2022-08-29T09:08:53.828Z,2.25
2022-08-29T09:10:08.722Z,1.70
2022-08-29T09:11:23.872Z,2.30
2022-08-29T09:12:57.302Z,1.70
2022-08-29T09:14:20.663Z,2.20
2022-08-29T09:15:26.953Z,2.10
2022-08-29T09:16:34.757Z,2.08
2022-08-29T09:17:53.239Z,2.35
2022-08-29T09:19:05.406Z,1.63
2022-08-29T09:20:12.737Z,2.08
2022-08-29T09:21:40.078Z,1.75
2022-08-29T09:22:42.410Z,1.80
2022-08-29T09:23:59.953Z,2.00
2022-08-29T09:25:08.048Z,1.95
2022-08-29T09:26:11.346Z,2.22
2022-08-29T09:27:21.996Z,1.80
2022-08-29T09:28:24.770Z,1.85
2022-08-29T09:29:30.394Z,1.88
2022-08-29T09:30:34.543Z,2.17
2022-08-29T09:31:37.657Z,1.60
2022-08-29T09:32:58.738Z,1.70
2022-08-29T09:34:11.872Z,1.80
2022-08-29T09:35:26.727Z,2.20
2022-08-29T09:36:50.385Z,1.50
2022-08-29T09:37:59.021Z,1.70
2022-08-29T09:39:23.721Z,2.00
2022-08-29T09:41:00.786Z,1.73
2022-08-29T09:42:12.725Z,1.77
2022-08-29T09:43:39.425Z,1.63
2022-08-29T09:44:56.058Z,1.45
2022-08-29T09:46:16.536Z,1.60
2022-08-29T09:47:29.096Z,1.88
2022-08-29T09:48:35.355Z,1.67
2022-08-29T09:49:40.417Z,1.40
2022-08-29T09:50:43.811Z,1.70
2022-08-29T09:51:48.784Z,1.48
2022-08-29T09:52:54.552Z,1.48
2022-08-29T09:54:17.950Z,1.73
2022-08-29T09:55:23.192Z,1.42
2022-08-29T09:56:27.352Z,1.58
2022-08-29T09:57:31.795Z,1.60
2022-08-29T09:58:40.028Z,1.40
2022-08-29T09:59:49.075Z,1.60
2022-08-29T10:01:06.602Z,1.60
2022-08-29T10:02:30.829Z,1.70
2022-08-29T10:03:39.681Z,1.30
2022-08-29T10:04:45.888Z,1.60
2022-08-29T10:05:49.193Z,1.73
2022-08-29T10:06:52.846Z,1.80
2022-08-29T10:07:55.863Z,1.42
2022-08-29T10:09:06.411Z,2.00
2022-08-29T10:10:20.768Z,1.63
2022-08-29T10:11:34.984Z,1.80
2022-08-29T10:12:48.064Z,1.80
2022-08-29T10:13:57.199Z,1.58
2022-08-29T10:15:02.704Z,1.43
2022-08-29T10:16:28.628Z,1.80
2022-08-29T10:18:24.882Z,1.83
2022-08-29T10:19:34.358Z,1.60
2022-08-29T10:20:47.109Z,1.52
2022-08-29T10:22:06.207Z,1.48
2022-08-29T10:23:39.894Z,1.73
2022-08-29T10:25:12.042Z,1.75
2022-08-29T10:26:50.751Z,1.80
2022-08-29T10:28:01.613Z,1.70
2022-08-29T10:29:29.611Z,1.83
2022-08-29T10:30:43.878Z,1.58
2022-08-29T10:32:05.044Z,1.50
2022-08-29T10:33:32.403Z,2.10
2022-08-29T10:34:59.120Z,1.65
2022-08-29T10:36:10.874Z,2.22
2022-08-29T10:37:42.173Z,1.70
2022-08-29T10:39:11.534Z,1.77
2022-08-29T10:40:26.466Z,1.58
2022-08-29T10:41:37.787Z,1.50
2022-08-29T10:42:41.466Z,1.67
2022-08-29T10:44:05.262Z,1.95
2022-08-29T10:45:31.238Z,1.40
2022-08-29T10:46:48.899Z,1.77
2022-08-29T10:47:53.533Z,1.65
2022-08-29T10:49:16.545Z,2.13
2022-08-29T10:50:47.901Z,1.30
2022-08-29T10:52:13.342Z,1.48
2022-08-29T10:53:24.592Z,1.20
2022-08-29T10:54:42.583Z,1.70
2022-08-29T10:55:45.179Z,1.60
2022-08-29T10:56:49.230Z,1.05
2022-08-29T10:58:16.837Z,1.50
2022-08-29T10:59:32.070Z,1.52
2022-08-29T11:00:45.524Z,1.27
2022-08-29T11:01:48.238Z,1.20
2022-08-29T11:03:13.439Z,1.50
2022-08-29T11:04:20.623Z,1.25
2022-08-29T11:05:29.639Z,1.48
2022-08-29T11:08:06.695Z,1.35
2022-08-29T11:09:15.303Z,1.40
2022-08-29T11:10:24.968Z,1.30
2022-08-29T11:11:30.240Z,1.20
2022-08-29T11:12:59.022Z,1.20
2022-08-29T11:14:40.643Z,1.17
2022-08-29T11:15:56.850Z,1.58
2022-08-29T11:17:03.455Z,1.08
2022-08-29T11:18:22.391Z,1.20
2022-08-29T11:19:30.870Z,1.80
2022-08-29T11:20:39.823Z,1.38
2022-08-29T11:22:17.437Z,1.40
2022-08-29T11:23:47.082Z,1.45
2022-08-29T11:25:03.696Z,1.33
2022-08-29T11:26:21.060Z,1.35
2022-08-29T11:27:30.063Z,1.55
2022-08-29T11:29:02.075Z,1.50
2022-08-29T11:30:30.945Z,1.50
2022-08-29T11:31:59.551Z,1.42
2022-08-29T11:33:41.363Z,1.40
2022-08-29T11:34:49.763Z,1.30
2022-08-29T11:36:27.741Z,1.20
2022-08-29T11:37:57.774Z,1.80
2022-08-29T11:39:23.668Z,1.95
2022-08-29T11:42:04.192Z,1.88
2022-08-29T11:43:12.184Z,1.70
2022-08-29T11:44:27.174Z,1.67
2022-08-29T11:45:37.519Z,2.00
2022-08-29T11:46:44.496Z,1.42
2022-08-29T11:48:17.145Z,1.90
2022-08-29T11:49:40.591Z,1.63
2022-08-29T11:50:43.615Z,1.90
2022-08-29T11:51:50.623Z,1.60
2022-08-29T11:53:00.200Z,1.77
2022-08-29T11:54:28.973Z,2.00
2022-08-29T11:55:37.406Z,1.70
2022-08-29T11:56:40.030Z,2.00
2022-08-29T11:57:49.048Z,1.90
2022-08-29T11:58:53.933Z,1.55
2022-08-29T11:59:57.774Z,1.80
2022-08-29T12:01:00.622Z,1.95
2022-08-29T12:02:03.612Z,1.67
2022-08-29T12:03:35.924Z,1.88
2022-08-29T12:04:54.269Z,1.63
2022-08-29T12:06:19.473Z,2.42
2022-08-29T12:07:48.970Z,1.88
2022-08-29T12:09:24.766Z,2.28
2022-08-29T12:10:34.264Z,2.58
2022-08-29T12:12:06.086Z,1.90
2022-08-29T12:13:08.682Z,1.80
2022-08-29T12:14:37.460Z,1.77
2022-08-29T12:15:53.322Z,1.60
2022-08-29T12:16:56.256Z,2.05
2022-08-29T12:18:02.547Z,2.00
2022-08-29T12:19:06.017Z,2.10
2022-08-29T12:20:08.480Z,1.77
2022-08-29T12:21:38.460Z,2.35
2022-08-29T12:22:50.016Z,1.73
2022-08-29T12:23:52.661Z,2.40
2022-08-29T12:24:57.622Z,2.00
2022-08-29T12:26:22.829Z,1.98
2022-08-29T12:28:02.756Z,2.10
2022-08-29T12:29:10.435Z,1.92
2022-08-29T12:30:13.880Z,1.85
2022-08-29T12:32:08.486Z,1.80
2022-08-29T12:33:44.076Z,1.48
2022-08-29T12:34:51.153Z,2.08
2022-08-29T12:36:08.870Z,1.50
2022-08-29T12:37:36.559Z,1.80
2022-08-29T12:39:19.626Z,1.73
2022-08-29T12:40:44.636Z,1.70
2022-08-29T12:42:06.054Z,1.70
2022-08-29T12:43:08.653Z,1.40
2022-08-29T12:44:14.420Z,1.65
2022-08-29T12:45:20.677Z,1.48
2022-08-29T12:46:28.788Z,1.92
2022-08-29T12:48:15.699Z,1.98
2022-08-29T12:49:23.631Z,1.63
2022-08-29T12:50:36.753Z,1.70
2022-08-29T12:51:42.165Z,2.03
2022-08-29T12:53:04.921Z,1.92
2022-08-29T12:54:09.029Z,2.00
2022-08-29T12:55:43.440Z,2.08
2022-08-29T12:56:49.916Z,1.98
2022-08-29T12:57:53.725Z,1.85
2022-08-29T12:58:58.946Z,2.20
2022-08-29T13:00:04.983Z,1.75
2022-08-29T13:01:20.467Z,1.90
2022-08-29T13:02:24.500Z,1.85
2022-08-29T13:03:27.353Z,2.00
2022-08-29T13:04:34.039Z,2.13
2022-08-29T13:05:39.517Z,2.30
2022-08-29T13:07:01.653Z,1.85
2022-08-29T13:08:13.007Z,1.80
2022-08-29T13:09:32.802Z,1.88
2022-08-29T13:10:38.303Z,1.75
2022-08-29T13:11:41.568Z,1.75
2022-08-29T13:12:44.084Z,1.70
2022-08-29T13:13:46.670Z,1.67
2022-08-29T13:14:57.581Z,1.77
2022-08-29T13:16:02.849Z,2.47
2022-08-29T13:17:13.683Z,1.40
2022-08-29T13:18:17.327Z,1.70
2022-08-29T13:19:21.809Z,2.05
2022-08-29T13:20:40.489Z,1.90
2022-08-29T13:21:43.433Z,1.70
2022-08-29T13:22:46.043Z,2.00
2022-08-29T13:23:58.435Z,1.55
2022-08-29T13:25:05.640Z,2.08
2022-08-29T13:26:10.856Z,1.80
2022-08-29T13:27:20.835Z,1.75
2022-08-29T13:28:26.753Z,1.92
2022-08-29T13:29:42.104Z,1.55
2022-08-29T13:30:48.712Z,1.83
2022-08-29T13:32:24.203Z,1.60
2022-08-29T13:33:35.543Z,1.60
2022-08-29T13:34:38.609Z,1.90
2022-08-29T13:35:41.302Z,1.77
2022-08-29T13:36:50.459Z,1.88
2022-08-29T13:38:24.950Z,1.27
2022-08-29T13:39:29.565Z,1.63
2022-08-29T13:40:42.603Z,1.27
2022-08-29T13:41:51.081Z,1.50
2022-08-29T13:42:53.678Z,1.60
2022-08-29T13:43:56.330Z,1.60
2022-08-29T13:45:05.819Z,1.55
2022-08-29T13:46:16.173Z,1.38
2022-08-29T13:47:27.367Z,1.58
2022-08-29T13:48:30.093Z,1.60
2022-08-29T13:49:34.640Z,1.60
2022-08-29T13:50:39.374Z,1.42
2022-08-29T13:51:42.211Z,1.40
2022-08-29T13:52:45.026Z,1.65
2022-08-29T13:53:47.585Z,1.30
2022-08-29T13:54:50.253Z,1.55
2022-08-29T13:55:52.868Z,1.48
2022-08-29T13:56:57.918Z,1.45
2022-08-29T13:58:00.497Z,1.63
2022-08-29T13:59:04.055Z,1.60
2022-08-29T14:00:07.719Z,1.60
2022-08-29T14:02:33.745Z,1.60
2022-08-29T14:03:36.620Z,1.38
2022-08-29T14:04:41.479Z,1.35
2022-08-29T14:05:44.678Z,1.73
2022-08-29T14:06:47.935Z,1.50
2022-08-29T14:07:50.618Z,1.30
2022-08-29T14:08:54.374Z,1.48
2022-08-29T14:09:57.749Z,1.40
2022-08-29T14:11:00.657Z,1.63
2022-08-29T14:12:04.548Z,1.52
2022-08-29T14:13:07.406Z,1.42
2022-08-29T14:14:10.365Z,1.70
2022-08-29T14:15:17.710Z,1.30
2022-08-29T14:16:21.142Z,1.77
2022-08-29T14:17:24.431Z,1.40
2022-08-29T14:18:27.042Z,1.40
2022-08-29T14:19:33.601Z,1.60
2022-08-29T14:20:37.220Z,1.45
2022-08-29T14:21:42.057Z,1.40
2022-08-29T14:22:45.575Z,1.45
2022-08-29T14:23:48.582Z,1.30
2022-08-29T14:24:53.101Z,1.40
2022-08-29T14:25:55.933Z,1.02
2022-08-29T14:27:01.124Z,2.03
2022-08-29T14:28:04.975Z,1.70
2022-08-29T14:29:08.008Z,1.45
2022-08-29T14:30:13.491Z,1.58
2022-08-29T14:31:16.098Z,1.90
2022-08-29T14:32:18.794Z,1.55
2022-08-29T14:33:23.540Z,1.42
2022-08-29T14:34:30.600Z,1.48
2022-08-29T14:35:35.367Z,1.30
2022-08-29T14:36:48.211Z,1.70
2022-08-29T14:37:51.220Z,1.52
2022-08-29T14:38:53.883Z,1.70
2022-08-29T14:39:56.647Z,1.73
2022-08-29T14:41:01.070Z,1.52
2022-08-29T14:42:04.200Z,1.67
2022-08-29T14:43:08.945Z,1.50
2022-08-29T14:44:20.153Z,1.83
2022-08-29T14:45:23.292Z,1.60
2022-08-29T14:46:27.104Z,1.77
2022-08-29T14:47:29.795Z,1.65
2022-08-29T14:48:32.404Z,1.83
2022-08-29T14:49:35.065Z,1.63
2022-08-29T14:50:37.798Z,1.80
2022-08-29T14:51:41.357Z,1.83
2022-08-29T14:52:44.360Z,1.90
2022-08-29T14:53:54.299Z,1.67
2022-08-29T14:54:57.976Z,1.92
2022-08-29T14:56:01.157Z,2.00
2022-08-29T14:57:04.095Z,1.63
2022-08-29T14:58:06.712Z,1.52
2022-08-29T14:59:10.371Z,1.48
2022-08-29T15:00:19.593Z,1.45
2022-08-29T15:01:22.652Z,1.80
2022-08-29T15:02:25.338Z,1.65
2022-08-29T15:03:28.057Z,2.00
2022-08-29T15:04:36.837Z,1.33